sensor_id;sensor_type;location;lat;lon;timestamp;P1;durP1;ratioP1;P2;durP2;ratioP2
48423;SDS011;34232;42.502;26.014;2022-09-17T00:00:49;5.00;;;1.50;;
48423;SDS011;34232;42.502;26.014;2022-09-17T00:03:16;3.22;;;1.20;;
48423;SDS011;34232;42.502;26.014;2022-09-17T00:05:42;8.48;;;2.38;;
48423;SDS011;34232;42.502;26.014;2022-09-17T00:08:09;6.40;;;1.77;;
48423;SDS011;34232;42.502;26.014;2022-09-17T00:10:38;6.97;;;1.20;;
48423;SDS011;34232;42.502;26.014;2022-09-17T00:13:06;4.65;;;1.27;;
48423;SDS011;34232;42.502;26.014;2022-09-17T00:15:38;5.40;;;1.35;;
48423;SDS011;34232;42.502;26.014;2022-09-17T00:18:05;5.88;;;1.98;;
48423;SDS011;34232;42.502;26.014;2022-09-17T00:20:30;6.47;;;1.60;;
48423;SDS011;34232;42.502;26.014;2022-09-17T00:22:56;5.10;;;1.70;;
48423;SDS011;34232;42.502;26.014;2022-09-17T00:25:21;11.33;;;1.43;;
48423;SDS011;34232;42.502;26.014;2022-09-17T00:27:47;6.50;;;1.17;;
48423;SDS011;34232;42.502;26.014;2022-09-17T00:30:12;7.60;;;1.40;;
48423;SDS011;34232;42.502;26.014;2022-09-17T00:32:38;7.43;;;1.55;;
48423;SDS011;34232;42.502;26.014;2022-09-17T00:35:04;4.07;;;2.10;;
48423;SDS011;34232;42.502;26.014;2022-09-17T00:37:30;5.85;;;2.08;;
48423;SDS011;34232;42.502;26.014;2022-09-17T00:39:55;8.77;;;1.47;;
48423;SDS011;34232;42.502;26.014;2022-09-17T00:42:21;8.97;;;1.60;;
48423;SDS011;34232;42.502;26.014;2022-09-17T00:50:00;4.70;;;1.63;;
48423;SDS011;34232;42.502;26.014;2022-09-17T00:52:52;9.38;;;1.63;;
48423;SDS011;34232;42.502;26.014;2022-09-17T00:57:50;14.73;;;2.33;;
48423;SDS011;34232;42.502;26.014;2022-09-17T01:00:18;5.90;;;1.73;;
48423;SDS011;34232;42.502;26.014;2022-09-17T01:05:10;7.35;;;1.75;;
48423;SDS011;34232;42.502;26.014;2022-09-17T01:16:11;5.50;;;1.85;;
48423;SDS011;34232;42.502;26.014;2022-09-17T01:18:42;9.60;;;1.92;;
48423;SDS011;34232;42.502;26.014;2022-09-17T01:38:33;7.30;;;1.65;;
48423;SDS011;34232;42.502;26.014;2022-09-17T01:43:57;8.75;;;1.83;;
48423;SDS011;34232;42.502;26.014;2022-09-17T01:46:46;9.70;;;1.80;;
48423;SDS011;34232;42.502;26.014;2022-09-17T01:49:17;12.25;;;2.33;;
48423;SDS011;34232;42.502;26.014;2022-09-17T01:51:46;4.72;;;1.88;;
48423;SDS011;34232;42.502;26.014;2022-09-17T01:54:17;9.73;;;1.77;;
48423;SDS011;34232;42.502;26.014;2022-09-17T01:56:50;6.60;;;1.88;;
48423;SDS011;34232;42.502;26.014;2022-09-17T01:59:20;3.92;;;1.48;;
48423;SDS011;34232;42.502;26.014;2022-09-17T02:01:53;3.90;;;1.92;;
48423;SDS011;34232;42.502;26.014;2022-09-17T02:04:25;7.07;;;1.50;;
48423;SDS011;34232;42.502;26.014;2022-09-17T02:06:59;9.40;;;2.33;;
48423;SDS011;34232;42.502;26.014;2022-09-17T02:09:39;4.95;;;1.90;;
48423;SDS011;34232;42.502;26.014;2022-09-17T02:12:12;8.00;;;2.95;;
48423;SDS011;34232;42.502;26.014;2022-09-17T02:14:47;8.18;;;2.50;;
48423;SDS011;34232;42.502;26.014;2022-09-17T02:17:19;5.57;;;2.05;;
48423;SDS011;34232;42.502;26.014;2022-09-17T02:19:51;7.38;;;1.92;;
48423;SDS011;34232;42.502;26.014;2022-09-17T02:22:40;10.65;;;2.67;;
48423;SDS011;34232;42.502;26.014;2022-09-17T02:25:05;6.38;;;2.55;;
48423;SDS011;34232;42.502;26.014;2022-09-17T02:30:28;6.18;;;1.98;;
48423;SDS011;34232;42.502;26.014;2022-09-17T02:35:19;9.60;;;2.05;;
48423;SDS011;34232;42.502;26.014;2022-09-17T02:37:48;12.65;;;2.22;;
48423;SDS011;34232;42.502;26.014;2022-09-17T02:40:14;10.38;;;2.30;;
48423;SDS011;34232;42.502;26.014;2022-09-17T02:58:37;16.92;;;3.22;;
48423;SDS011;34232;42.502;26.014;2022-09-17T03:01:15;7.80;;;2.92;;
48423;SDS011;34232;42.502;26.014;2022-09-17T03:04:03;6.03;;;2.45;;
48423;SDS011;34232;42.502;26.014;2022-09-17T03:06:32;7.53;;;1.67;;
48423;SDS011;34232;42.502;26.014;2022-09-17T03:08:58;4.93;;;1.97;;
48423;SDS011;34232;42.502;26.014;2022-09-17T03:11:23;7.63;;;1.60;;
48423;SDS011;34232;42.502;26.014;2022-09-17T03:13:49;8.48;;;2.08;;
48423;SDS011;34232;42.502;26.014;2022-09-17T03:16:24;7.13;;;2.03;;
48423;SDS011;34232;42.502;26.014;2022-09-17T03:18:49;8.25;;;1.60;;
48423;SDS011;34232;42.502;26.014;2022-09-17T03:21:15;12.53;;;1.80;;
48423;SDS011;34232;42.502;26.014;2022-09-17T03:23:40;5.70;;;2.80;;
48423;SDS011;34232;42.502;26.014;2022-09-17T03:26:06;4.38;;;1.42;;
48423;SDS011;34232;42.502;26.014;2022-09-17T03:28:31;7.57;;;2.33;;
48423;SDS011;34232;42.502;26.014;2022-09-17T03:30:57;10.13;;;2.47;;
48423;SDS011;34232;42.502;26.014;2022-09-17T03:33:22;13.02;;;2.45;;
48423;SDS011;34232;42.502;26.014;2022-09-17T03:35:48;9.37;;;2.07;;
48423;SDS011;34232;42.502;26.014;2022-09-17T03:38:13;5.30;;;1.47;;
48423;SDS011;34232;42.502;26.014;2022-09-17T03:40:39;6.20;;;1.70;;
48423;SDS011;34232;42.502;26.014;2022-09-17T03:43:04;3.97;;;2.00;;
48423;SDS011;34232;42.502;26.014;2022-09-17T03:45:30;5.68;;;1.98;;
48423;SDS011;34232;42.502;26.014;2022-09-17T03:47:56;11.65;;;3.03;;
48423;SDS011;34232;42.502;26.014;2022-09-17T03:50:21;3.33;;;1.67;;
48423;SDS011;34232;42.502;26.014;2022-09-17T03:52:47;5.47;;;1.37;;
48423;SDS011;34232;42.502;26.014;2022-09-17T03:55:13;4.57;;;1.83;;
48423;SDS011;34232;42.502;26.014;2022-09-17T03:57:40;4.80;;;1.95;;
48423;SDS011;34232;42.502;26.014;2022-09-17T04:00:06;5.45;;;1.67;;
48423;SDS011;34232;42.502;26.014;2022-09-17T04:04:58;7.68;;;2.33;;
48423;SDS011;34232;42.502;26.014;2022-09-17T04:07:23;6.50;;;1.73;;
48423;SDS011;34232;42.502;26.014;2022-09-17T04:09:48;6.77;;;1.60;;
48423;SDS011;34232;42.502;26.014;2022-09-17T04:12:14;6.77;;;2.07;;
48423;SDS011;34232;42.502;26.014;2022-09-17T04:14:39;6.73;;;1.80;;
48423;SDS011;34232;42.502;26.014;2022-09-17T04:17:07;9.27;;;1.73;;
48423;SDS011;34232;42.502;26.014;2022-09-17T04:19:33;9.77;;;2.00;;
48423;SDS011;34232;42.502;26.014;2022-09-17T04:21:58;6.50;;;1.90;;
48423;SDS011;34232;42.502;26.014;2022-09-17T04:24:24;10.40;;;2.03;;
48423;SDS011;34232;42.502;26.014;2022-09-17T04:26:49;10.33;;;2.20;;
48423;SDS011;34232;42.502;26.014;2022-09-17T04:29:15;6.07;;;1.90;;
48423;SDS011;34232;42.502;26.014;2022-09-17T04:31:40;7.53;;;2.27;;
48423;SDS011;34232;42.502;26.014;2022-09-17T04:34:05;3.53;;;1.90;;
48423;SDS011;34232;42.502;26.014;2022-09-17T04:36:31;7.53;;;2.37;;
48423;SDS011;34232;42.502;26.014;2022-09-17T04:38:56;8.43;;;2.10;;
48423;SDS011;34232;42.502;26.014;2022-09-17T04:41:22;8.17;;;2.00;;
48423;SDS011;34232;42.502;26.014;2022-09-17T04:43:47;7.90;;;2.93;;
48423;SDS011;34232;42.502;26.014;2022-09-17T04:46:13;7.50;;;2.33;;
48423;SDS011;34232;42.502;26.014;2022-09-17T04:48:40;10.65;;;2.55;;
48423;SDS011;34232;42.502;26.014;2022-09-17T04:51:06;13.03;;;2.33;;
48423;SDS011;34232;42.502;26.014;2022-09-17T04:53:31;5.53;;;2.47;;
48423;SDS011;34232;42.502;26.014;2022-09-17T04:55:56;8.40;;;3.20;;
48423;SDS011;34232;42.502;26.014;2022-09-17T04:58:22;12.53;;;3.23;;
48423;SDS011;34232;42.502;26.014;2022-09-17T05:00:47;4.57;;;2.17;;
48423;SDS011;34232;42.502;26.014;2022-09-17T05:03:13;7.37;;;2.17;;
48423;SDS011;34232;42.502;26.014;2022-09-17T05:05:38;7.73;;;2.10;;
48423;SDS011;34232;42.502;26.014;2022-09-17T05:08:03;9.03;;;2.00;;
48423;SDS011;34232;42.502;26.014;2022-09-17T05:10:29;7.53;;;1.80;;
48423;SDS011;34232;42.502;26.014;2022-09-17T05:12:55;9.23;;;2.73;;
48423;SDS011;34232;42.502;26.014;2022-09-17T05:15:21;6.97;;;2.05;;
48423;SDS011;34232;42.502;26.014;2022-09-17T05:17:48;5.53;;;3.08;;
48423;SDS011;34232;42.502;26.014;2022-09-17T05:20:14;7.85;;;3.40;;
48423;SDS011;34232;42.502;26.014;2022-09-17T05:22:43;5.70;;;2.50;;
48423;SDS011;34232;42.502;26.014;2022-09-17T05:25:11;14.32;;;3.22;;
48423;SDS011;34232;42.502;26.014;2022-09-17T05:27:38;8.38;;;2.92;;
48423;SDS011;34232;42.502;26.014;2022-09-17T05:30:06;9.40;;;2.55;;
48423;SDS011;34232;42.502;26.014;2022-09-17T05:32:33;5.82;;;2.40;;
48423;SDS011;34232;42.502;26.014;2022-09-17T05:35:00;12.43;;;3.15;;
48423;SDS011;34232;42.502;26.014;2022-09-17T05:37:27;6.00;;;3.10;;
48423;SDS011;34232;42.502;26.014;2022-09-17T05:39:52;6.83;;;3.00;;
48423;SDS011;34232;42.502;26.014;2022-09-17T05:42:18;9.43;;;3.37;;
48423;SDS011;34232;42.502;26.014;2022-09-17T05:44:43;5.17;;;2.60;;
48423;SDS011;34232;42.502;26.014;2022-09-17T05:47:08;11.87;;;2.93;;
48423;SDS011;34232;42.502;26.014;2022-09-17T05:49:34;7.63;;;2.93;;
48423;SDS011;34232;42.502;26.014;2022-09-17T05:51:59;7.63;;;3.47;;
48423;SDS011;34232;42.502;26.014;2022-09-17T05:54:27;6.93;;;4.22;;
48423;SDS011;34232;42.502;26.014;2022-09-17T05:56:52;8.30;;;2.50;;
48423;SDS011;34232;42.502;26.014;2022-09-17T05:59:18;11.05;;;4.30;;
48423;SDS011;34232;42.502;26.014;2022-09-17T06:01:43;8.50;;;3.10;;
48423;SDS011;34232;42.502;26.014;2022-09-17T06:04:09;8.95;;;3.10;;
48423;SDS011;34232;42.502;26.014;2022-09-17T06:06:35;8.23;;;4.07;;
48423;SDS011;34232;42.502;26.014;2022-09-17T06:09:01;8.23;;;4.05;;
48423;SDS011;34232;42.502;26.014;2022-09-17T06:11:27;11.48;;;3.75;;
48423;SDS011;34232;42.502;26.014;2022-09-17T06:13:53;9.57;;;3.93;;
48423;SDS011;34232;42.502;26.014;2022-09-17T06:16:20;5.30;;;2.83;;
48423;SDS011;34232;42.502;26.014;2022-09-17T06:18:46;10.90;;;3.38;;
48423;SDS011;34232;42.502;26.014;2022-09-17T06:21:11;6.40;;;3.05;;
48423;SDS011;34232;42.502;26.014;2022-09-17T06:23:37;3.70;;;2.40;;
48423;SDS011;34232;42.502;26.014;2022-09-17T06:26:03;6.20;;;2.20;;
48423;SDS011;34232;42.502;26.014;2022-09-17T06:28:29;6.30;;;2.13;;
48423;SDS011;34232;42.502;26.014;2022-09-17T06:30:59;6.63;;;2.45;;
48423;SDS011;34232;42.502;26.014;2022-09-17T06:33:26;25.23;;;5.25;;
48423;SDS011;34232;42.502;26.014;2022-09-17T06:35:58;9.57;;;2.60;;
48423;SDS011;34232;42.502;26.014;2022-09-17T06:38:28;10.05;;;2.95;;
48423;SDS011;34232;42.502;26.014;2022-09-17T06:40:55;9.20;;;1.88;;
48423;SDS011;34232;42.502;26.014;2022-09-17T06:43:21;5.80;;;1.98;;
48423;SDS011;34232;42.502;26.014;2022-09-17T06:45:54;4.45;;;2.13;;
48423;SDS011;34232;42.502;26.014;2022-09-17T06:48:21;8.73;;;2.63;;
48423;SDS011;34232;42.502;26.014;2022-09-17T06:50:47;8.52;;;2.40;;
48423;SDS011;34232;42.502;26.014;2022-09-17T06:53:13;8.70;;;2.13;;
48423;SDS011;34232;42.502;26.014;2022-09-17T06:55:39;31.60;;;6.93;;
48423;SDS011;34232;42.502;26.014;2022-09-17T06:58:04;10.10;;;2.78;;
48423;SDS011;34232;42.502;26.014;2022-09-17T07:00:30;22.30;;;4.07;;
48423;SDS011;34232;42.502;26.014;2022-09-17T07:02:56;3.97;;;2.70;;
48423;SDS011;34232;42.502;26.014;2022-09-17T07:05:22;42.17;;;11.43;;
48423;SDS011;34232;42.502;26.014;2022-09-17T07:07:48;10.10;;;2.65;;
48423;SDS011;34232;42.502;26.014;2022-09-17T07:10:14;8.88;;;2.60;;
48423;SDS011;34232;42.502;26.014;2022-09-17T07:12:40;8.40;;;2.50;;
48423;SDS011;34232;42.502;26.014;2022-09-17T07:15:06;10.75;;;3.92;;
48423;SDS011;34232;42.502;26.014;2022-09-17T07:19:57;7.22;;;2.67;;
48423;SDS011;34232;42.502;26.014;2022-09-17T07:22:25;9.57;;;3.33;;
48423;SDS011;34232;42.502;26.014;2022-09-17T07:24:50;9.25;;;2.70;;
48423;SDS011;34232;42.502;26.014;2022-09-17T07:27:16;8.30;;;3.00;;
48423;SDS011;34232;42.502;26.014;2022-09-17T07:29:41;5.82;;;2.47;;
48423;SDS011;34232;42.502;26.014;2022-09-17T07:32:06;5.57;;;2.35;;
48423;SDS011;34232;42.502;26.014;2022-09-17T07:34:32;8.45;;;2.47;;
48423;SDS011;34232;42.502;26.014;2022-09-17T07:36:57;6.15;;;2.67;;
48423;SDS011;34232;42.502;26.014;2022-09-17T07:39:23;5.93;;;3.05;;
48423;SDS011;34232;42.502;26.014;2022-09-17T07:41:48;7.72;;;3.20;;
48423;SDS011;34232;42.502;26.014;2022-09-17T07:44:14;5.88;;;2.45;;
48423;SDS011;34232;42.502;26.014;2022-09-17T07:46:42;7.68;;;2.78;;
48423;SDS011;34232;42.502;26.014;2022-09-17T07:49:07;7.35;;;2.60;;
48423;SDS011;34232;42.502;26.014;2022-09-17T07:51:33;8.70;;;3.53;;
48423;SDS011;34232;42.502;26.014;2022-09-17T07:53:58;7.95;;;3.30;;
48423;SDS011;34232;42.502;26.014;2022-09-17T07:56:24;5.55;;;3.42;;
48423;SDS011;34232;42.502;26.014;2022-09-17T07:58:51;6.10;;;2.90;;
48423;SDS011;34232;42.502;26.014;2022-09-17T08:01:19;8.82;;;3.22;;
48423;SDS011;34232;42.502;26.014;2022-09-17T08:03:47;10.50;;;3.15;;
48423;SDS011;34232;42.502;26.014;2022-09-17T08:06:14;8.07;;;2.63;;
48423;SDS011;34232;42.502;26.014;2022-09-17T08:08:41;6.32;;;2.50;;
48423;SDS011;34232;42.502;26.014;2022-09-17T08:11:17;8.65;;;3.35;;
48423;SDS011;34232;42.502;26.014;2022-09-17T08:13:50;7.28;;;3.28;;
48423;SDS011;34232;42.502;26.014;2022-09-17T08:16:17;6.55;;;3.30;;
48423;SDS011;34232;42.502;26.014;2022-09-17T08:18:43;5.30;;;2.53;;
48423;SDS011;34232;42.502;26.014;2022-09-17T08:21:11;10.65;;;3.78;;
48423;SDS011;34232;42.502;26.014;2022-09-17T08:23:38;7.47;;;3.70;;
48423;SDS011;34232;42.502;26.014;2022-09-17T08:26:06;11.88;;;3.80;;
48423;SDS011;34232;42.502;26.014;2022-09-17T08:28:35;8.80;;;3.80;;
48423;SDS011;34232;42.502;26.014;2022-09-17T08:33:31;10.02;;;3.08;;
48423;SDS011;34232;42.502;26.014;2022-09-17T08:35:58;7.07;;;2.25;;
48423;SDS011;34232;42.502;26.014;2022-09-17T08:46:16;7.65;;;2.97;;
48423;SDS011;34232;42.502;26.014;2022-09-17T08:56:17;4.95;;;2.17;;
48423;SDS011;34232;42.502;26.014;2022-09-17T08:58:56;16.95;;;3.53;;
48423;SDS011;34232;42.502;26.014;2022-09-17T09:01:32;6.25;;;3.10;;
48423;SDS011;34232;42.502;26.014;2022-09-17T09:07:01;4.25;;;2.75;;
48423;SDS011;34232;42.502;26.014;2022-09-17T09:09:37;3.72;;;2.28;;
48423;SDS011;34232;42.502;26.014;2022-09-17T09:15:07;9.27;;;2.83;;
48423;SDS011;34232;42.502;26.014;2022-09-17T09:17:44;8.90;;;2.78;;
48423;SDS011;34232;42.502;26.014;2022-09-17T09:20:15;8.27;;;3.08;;
48423;SDS011;34232;42.502;26.014;2022-09-17T09:22:47;26.02;;;3.08;;
48423;SDS011;34232;42.502;26.014;2022-09-17T09:30:25;8.05;;;3.33;;
48423;SDS011;34232;42.502;26.014;2022-09-17T09:35:42;3.83;;;2.60;;
48423;SDS011;34232;42.502;26.014;2022-09-17T09:43:27;9.38;;;3.10;;
48423;SDS011;34232;42.502;26.014;2022-09-17T09:46:00;4.97;;;2.70;;
48423;SDS011;34232;42.502;26.014;2022-09-17T09:56:48;5.47;;;2.88;;
48423;SDS011;34232;42.502;26.014;2022-09-17T09:59:19;4.10;;;2.38;;
48423;SDS011;34232;42.502;26.014;2022-09-17T10:01:44;4.97;;;3.03;;
48423;SDS011;34232;42.502;26.014;2022-09-17T10:04:23;7.85;;;1.98;;
48423;SDS011;34232;42.502;26.014;2022-09-17T10:06:51;11.27;;;2.83;;
48423;SDS011;34232;42.502;26.014;2022-09-17T10:09:19;7.32;;;2.97;;
48423;SDS011;34232;42.502;26.014;2022-09-17T10:14:26;5.97;;;2.30;;
48423;SDS011;34232;42.502;26.014;2022-09-17T10:22:29;5.70;;;2.13;;
48423;SDS011;34232;42.502;26.014;2022-09-17T10:25:27;8.48;;;3.00;;
48423;SDS011;34232;42.502;26.014;2022-09-17T10:27:54;41.03;;;9.52;;
48423;SDS011;34232;42.502;26.014;2022-09-17T10:30:21;6.63;;;2.92;;
48423;SDS011;34232;42.502;26.014;2022-09-17T10:35:38;8.85;;;1.73;;
48423;SDS011;34232;42.502;26.014;2022-09-17T10:38:03;8.43;;;2.60;;
48423;SDS011;34232;42.502;26.014;2022-09-17T10:40:30;7.22;;;2.35;;
48423;SDS011;34232;42.502;26.014;2022-09-17T10:45:42;3.00;;;1.85;;
48423;SDS011;34232;42.502;26.014;2022-09-17T10:48:13;5.50;;;1.70;;
48423;SDS011;34232;42.502;26.014;2022-09-17T10:50:45;6.60;;;1.88;;
48423;SDS011;34232;42.502;26.014;2022-09-17T10:53:16;7.03;;;1.52;;
48423;SDS011;34232;42.502;26.014;2022-09-17T11:04:03;6.13;;;1.67;;
48423;SDS011;34232;42.502;26.014;2022-09-17T11:09:27;6.75;;;1.15;;
48423;SDS011;34232;42.502;26.014;2022-09-17T11:12:11;6.70;;;1.00;;
48423;SDS011;34232;42.502;26.014;2022-09-17T11:14:58;9.75;;;1.15;;
48423;SDS011;34232;42.502;26.014;2022-09-17T11:20:14;8.57;;;1.33;;
48423;SDS011;34232;42.502;26.014;2022-09-17T11:39:24;10.50;;;2.22;;
48423;SDS011;34232;42.502;26.014;2022-09-17T11:42:06;9.63;;;2.40;;
48423;SDS011;34232;42.502;26.014;2022-09-17T11:47:28;3.22;;;1.40;;
48423;SDS011;34232;42.502;26.014;2022-09-17T11:52:37;7.80;;;1.40;;
48423;SDS011;34232;42.502;26.014;2022-09-17T11:55:15;8.55;;;1.63;;
48423;SDS011;34232;42.502;26.014;2022-09-17T11:57:42;7.20;;;1.60;;
48423;SDS011;34232;42.502;26.014;2022-09-17T12:02:56;5.72;;;1.50;;
48423;SDS011;34232;42.502;26.014;2022-09-17T12:08:09;7.75;;;1.42;;
48423;SDS011;34232;42.502;26.014;2022-09-17T12:11:00;6.78;;;1.27;;
48423;SDS011;34232;42.502;26.014;2022-09-17T12:16:56;5.03;;;1.27;;
48423;SDS011;34232;42.502;26.014;2022-09-17T12:19:34;15.23;;;2.17;;
48423;SDS011;34232;42.502;26.014;2022-09-17T12:22:07;4.28;;;1.05;;
48423;SDS011;34232;42.502;26.014;2022-09-17T12:24:36;7.00;;;0.60;;
48423;SDS011;34232;42.502;26.014;2022-09-17T12:27:21;36.00;;;3.72;;
48423;SDS011;34232;42.502;26.014;2022-09-17T13:01:23;6.35;;;1.40;;
48423;SDS011;34232;42.502;26.014;2022-09-17T13:07:16;3.25;;;1.42;;
48423;SDS011;34232;42.502;26.014;2022-09-17T13:12:43;3.63;;;0.68;;
48423;SDS011;34232;42.502;26.014;2022-09-17T13:20:30;4.25;;;1.08;;
48423;SDS011;34232;42.502;26.014;2022-09-17T13:23:01;2.72;;;0.40;;
48423;SDS011;34232;42.502;26.014;2022-09-17T13:25:28;2.40;;;0.57;;
48423;SDS011;34232;42.502;26.014;2022-09-17T13:28:09;3.15;;;0.50;;
48423;SDS011;34232;42.502;26.014;2022-09-17T13:30:53;2.92;;;0.20;;
48423;SDS011;34232;42.502;26.014;2022-09-17T13:38:57;2.25;;;0.40;;
48423;SDS011;34232;42.502;26.014;2022-09-17T13:41:26;2.30;;;0.40;;
48423;SDS011;34232;42.502;26.014;2022-09-17T13:43:54;1.77;;;0.20;;
48423;SDS011;34232;42.502;26.014;2022-09-17T13:46:21;2.60;;;0.22;;
48423;SDS011;34232;42.502;26.014;2022-09-17T13:48:50;2.22;;;0.20;;
48423;SDS011;34232;42.502;26.014;2022-09-17T13:54:11;3.05;;;0.20;;
48423;SDS011;34232;42.502;26.014;2022-09-17T13:56:46;3.53;;;0.22;;
48423;SDS011;34232;42.502;26.014;2022-09-17T13:59:15;0.70;;;0.10;;
48423;SDS011;34232;42.502;26.014;2022-09-17T14:09:51;0.55;;;0.20;;
48423;SDS011;34232;42.502;26.014;2022-09-17T14:15:15;2.03;;;0.10;;
48423;SDS011;34232;42.502;26.014;2022-09-17T14:21:13;0.52;;;0.10;;
48423;SDS011;34232;42.502;26.014;2022-09-17T14:23:44;0.63;;;0.08;;
48423;SDS011;34232;42.502;26.014;2022-09-17T14:26:36;0.80;;;0.10;;
48423;SDS011;34232;42.502;26.014;2022-09-17T14:32:06;2.90;;;0.10;;
48423;SDS011;34232;42.502;26.014;2022-09-17T14:34:39;1.50;;;0.10;;
48423;SDS011;34232;42.502;26.014;2022-09-17T14:37:05;0.68;;;0.28;;
48423;SDS011;34232;42.502;26.014;2022-09-17T14:39:37;1.65;;;0.10;;
48423;SDS011;34232;42.502;26.014;2022-09-17T14:42:04;2.65;;;0.20;;
48423;SDS011;34232;42.502;26.014;2022-09-17T14:44:38;2.15;;;0.10;;
48423;SDS011;34232;42.502;26.014;2022-09-17T14:47:16;4.28;;;0.30;;
48423;SDS011;34232;42.502;26.014;2022-09-17T14:49:44;2.67;;;0.30;;
48423;SDS011;34232;42.502;26.014;2022-09-17T14:55:08;3.78;;;0.57;;
48423;SDS011;34232;42.502;26.014;2022-09-17T14:57:34;3.67;;;0.70;;
48423;SDS011;34232;42.502;26.014;2022-09-17T15:00:03;2.25;;;0.80;;
48423;SDS011;34232;42.502;26.014;2022-09-17T15:07:46;3.42;;;1.42;;
48423;SDS011;34232;42.502;26.014;2022-09-17T15:10:16;4.20;;;1.38;;
48423;SDS011;34232;42.502;26.014;2022-09-17T15:12:44;4.75;;;1.60;;
48423;SDS011;34232;42.502;26.014;2022-09-17T15:15:20;1.13;;;0.22;;
48423;SDS011;34232;42.502;26.014;2022-09-17T15:17:48;7.28;;;0.55;;
48423;SDS011;34232;42.502;26.014;2022-09-17T15:20:17;2.80;;;0.25;;
48423;SDS011;34232;42.502;26.014;2022-09-17T15:22:47;2.15;;;0.35;;
48423;SDS011;34232;42.502;26.014;2022-09-17T15:25:22;3.53;;;0.50;;
48423;SDS011;34232;42.502;26.014;2022-09-17T15:27:57;2.85;;;0.68;;
48423;SDS011;34232;42.502;26.014;2022-09-17T15:30:28;2.75;;;0.13;;
48423;SDS011;34232;42.502;26.014;2022-09-17T15:32:54;2.55;;;0.20;;
48423;SDS011;34232;42.502;26.014;2022-09-17T15:35:23;4.80;;;0.75;;
48423;SDS011;34232;42.502;26.014;2022-09-17T15:38:00;5.05;;;0.57;;
48423;SDS011;34232;42.502;26.014;2022-09-17T15:40:33;0.93;;;0.38;;
48423;SDS011;34232;42.502;26.014;2022-09-17T15:45:40;6.30;;;0.40;;
48423;SDS011;34232;42.502;26.014;2022-09-17T15:50:57;5.72;;;0.20;;
48423;SDS011;34232;42.502;26.014;2022-09-17T15:53:25;7.85;;;0.60;;
48423;SDS011;34232;42.502;26.014;2022-09-17T15:58:51;3.50;;;0.22;;
48423;SDS011;34232;42.502;26.014;2022-09-17T16:09:45;2.13;;;0.10;;
48423;SDS011;34232;42.502;26.014;2022-09-17T16:12:14;9.43;;;1.05;;
48423;SDS011;34232;42.502;26.014;2022-09-17T16:14:44;6.47;;;0.68;;
48423;SDS011;34232;42.502;26.014;2022-09-17T16:22:42;4.80;;;1.00;;
48423;SDS011;34232;42.502;26.014;2022-09-17T16:25:09;2.97;;;0.55;;
48423;SDS011;34232;42.502;26.014;2022-09-17T16:27:49;4.13;;;0.40;;
48423;SDS011;34232;42.502;26.014;2022-09-17T16:30:19;2.28;;;0.40;;
48423;SDS011;34232;42.502;26.014;2022-09-17T16:32:46;3.80;;;0.30;;
48423;SDS011;34232;42.502;26.014;2022-09-17T16:35:14;1.80;;;0.60;;
48423;SDS011;34232;42.502;26.014;2022-09-17T16:37:42;3.80;;;0.90;;
48423;SDS011;34232;42.502;26.014;2022-09-17T16:40:09;3.63;;;0.88;;
48423;SDS011;34232;42.502;26.014;2022-09-17T16:42:36;3.42;;;0.30;;
48423;SDS011;34232;42.502;26.014;2022-09-17T16:45:01;4.25;;;0.85;;
48423;SDS011;34232;42.502;26.014;2022-09-17T16:47:28;2.95;;;0.30;;
48423;SDS011;34232;42.502;26.014;2022-09-17T16:49:55;3.55;;;0.70;;
48423;SDS011;34232;42.502;26.014;2022-09-17T16:52:21;4.65;;;1.52;;
48423;SDS011;34232;42.502;26.014;2022-09-17T16:54:46;0.90;;;0.20;;
48423;SDS011;34232;42.502;26.014;2022-09-17T16:57:12;1.77;;;0.43;;
48423;SDS011;34232;42.502;26.014;2022-09-17T16:59:37;3.10;;;0.60;;
48423;SDS011;34232;42.502;26.014;2022-09-17T17:02:02;1.37;;;0.20;;
48423;SDS011;34232;42.502;26.014;2022-09-17T17:04:28;1.15;;;0.10;;
48423;SDS011;34232;42.502;26.014;2022-09-17T17:06:53;0.77;;;0.20;;
48423;SDS011;34232;42.502;26.014;2022-09-17T17:09:19;1.67;;;0.17;;
48423;SDS011;34232;42.502;26.014;2022-09-17T17:11:44;3.27;;;0.10;;
48423;SDS011;34232;42.502;26.014;2022-09-17T17:14:09;3.10;;;0.10;;
48423;SDS011;34232;42.502;26.014;2022-09-17T17:16:35;3.73;;;0.13;;
48423;SDS011;34232;42.502;26.014;2022-09-17T17:19:04;6.38;;;0.45;;
48423;SDS011;34232;42.502;26.014;2022-09-17T17:21:30;9.73;;;1.00;;
48423;SDS011;34232;42.502;26.014;2022-09-17T17:23:55;4.83;;;0.37;;
48423;SDS011;34232;42.502;26.014;2022-09-17T17:26:21;2.77;;;0.67;;
48423;SDS011;34232;42.502;26.014;2022-09-17T17:28:46;6.45;;;1.23;;
48423;SDS011;34232;42.502;26.014;2022-09-17T17:31:13;5.97;;;1.45;;
48423;SDS011;34232;42.502;26.014;2022-09-17T17:33:38;6.53;;;0.60;;
48423;SDS011;34232;42.502;26.014;2022-09-17T17:36:03;2.63;;;0.30;;
48423;SDS011;34232;42.502;26.014;2022-09-17T17:38:30;1.80;;;0.88;;
48423;SDS011;34232;42.502;26.014;2022-09-17T17:41:11;2.80;;;0.40;;
48423;SDS011;34232;42.502;26.014;2022-09-17T17:43:38;5.07;;;0.88;;
48423;SDS011;34232;42.502;26.014;2022-09-17T17:48:31;4.53;;;0.43;;
48423;SDS011;34232;42.502;26.014;2022-09-17T17:51:01;5.93;;;0.63;;
48423;SDS011;34232;42.502;26.014;2022-09-17T17:53:28;5.78;;;0.40;;
48423;SDS011;34232;42.502;26.014;2022-09-17T17:55:54;2.90;;;0.30;;
48423;SDS011;34232;42.502;26.014;2022-09-17T17:58:21;4.97;;;0.45;;
48423;SDS011;34232;42.502;26.014;2022-09-17T18:00:47;5.77;;;0.70;;
48423;SDS011;34232;42.502;26.014;2022-09-17T18:03:12;5.87;;;1.07;;
48423;SDS011;34232;42.502;26.014;2022-09-17T18:05:38;2.87;;;0.50;;
48423;SDS011;34232;42.502;26.014;2022-09-17T18:08:04;4.05;;;0.52;;
48423;SDS011;34232;42.502;26.014;2022-09-17T18:10:29;5.57;;;0.30;;
48423;SDS011;34232;42.502;26.014;2022-09-17T18:12:55;3.20;;;0.73;;
48423;SDS011;34232;42.502;26.014;2022-09-17T18:15:20;3.00;;;0.50;;
48423;SDS011;34232;42.502;26.014;2022-09-17T18:17:45;8.53;;;1.90;;
48423;SDS011;34232;42.502;26.014;2022-09-17T18:20:14;3.80;;;0.60;;
48423;SDS011;34232;42.502;26.014;2022-09-17T18:22:40;7.60;;;1.00;;
48423;SDS011;34232;42.502;26.014;2022-09-17T18:25:05;5.87;;;0.73;;
48423;SDS011;34232;42.502;26.014;2022-09-17T18:27:31;4.35;;;0.55;;
48423;SDS011;34232;42.502;26.014;2022-09-17T18:29:56;3.10;;;0.73;;
48423;SDS011;34232;42.502;26.014;2022-09-17T18:32:22;5.13;;;0.50;;
48423;SDS011;34232;42.502;26.014;2022-09-17T18:34:47;6.27;;;0.83;;
48423;SDS011;34232;42.502;26.014;2022-09-17T18:37:13;2.63;;;0.97;;
48423;SDS011;34232;42.502;26.014;2022-09-17T18:39:38;2.37;;;0.53;;
48423;SDS011;34232;42.502;26.014;2022-09-17T18:42:03;1.83;;;1.10;;
48423;SDS011;34232;42.502;26.014;2022-09-17T18:44:29;5.50;;;0.73;;
48423;SDS011;34232;42.502;26.014;2022-09-17T18:46:54;3.70;;;0.37;;
48423;SDS011;34232;42.502;26.014;2022-09-17T18:49:29;2.60;;;0.57;;
48423;SDS011;34232;42.502;26.014;2022-09-17T18:51:54;3.10;;;0.63;;
48423;SDS011;34232;42.502;26.014;2022-09-17T18:54:19;0.77;;;0.33;;
48423;SDS011;34232;42.502;26.014;2022-09-17T18:56:53;3.38;;;0.88;;
48423;SDS011;34232;42.502;26.014;2022-09-17T18:59:19;4.60;;;0.97;;
48423;SDS011;34232;42.502;26.014;2022-09-17T19:01:44;7.17;;;0.40;;
48423;SDS011;34232;42.502;26.014;2022-09-17T19:04:10;8.10;;;0.47;;
48423;SDS011;34232;42.502;26.014;2022-09-17T19:06:35;1.70;;;0.20;;
48423;SDS011;34232;42.502;26.014;2022-09-17T19:09:01;5.00;;;0.67;;
48423;SDS011;34232;42.502;26.014;2022-09-17T19:11:27;4.13;;;0.60;;